createdAt,value
2019-03-21T00:00:57.769Z,19.60
2019-03-21T00:03:27.628Z,12.30
2019-03-21T00:05:57.473Z,17.80
2019-03-21T00:08:27.317Z,17.33
2019-03-21T00:11:42.438Z,16.40
2019-03-21T00:14:20.308Z,13.83
2019-03-21T00:16:50.147Z,13.03
2019-03-21T00:19:19.929Z,15.00
2019-03-21T00:21:49.742Z,15.87
2019-03-21T00:24:19.557Z,15.47
2019-03-21T00:26:49.369Z,13.83
2019-03-21T00:29:19.189Z,15.57
2019-03-21T00:31:49.145Z,20.23
2019-03-21T00:34:18.941Z,17.67
2019-03-21T00:36:48.845Z,16.20
2019-03-21T00:39:18.705Z,15.43
2019-03-21T00:41:48.657Z,15.70
2019-03-21T00:44:18.664Z,15.50
2019-03-21T00:46:48.665Z,17.50
2019-03-21T00:49:18.509Z,18.10
2019-03-21T00:51:48.373Z,21.40
2019-03-21T00:54:18.508Z,15.60
2019-03-21T00:56:48.305Z,18.13
2019-03-21T00:59:18.212Z,18.90
2019-03-21T01:01:47.995Z,16.90
2019-03-21T01:04:17.848Z,16.57
2019-03-21T01:06:47.630Z,14.80
2019-03-21T01:09:17.553Z,15.93
2019-03-21T01:11:47.349Z,19.83
2019-03-21T01:14:17.164Z,18.20
2019-03-21T01:16:46.957Z,19.47
2019-03-21T01:19:16.809Z,16.07
2019-03-21T01:21:46.712Z,15.80
2019-03-21T01:24:16.633Z,17.33
2019-03-21T01:26:46.468Z,19.03
2019-03-21T01:29:16.312Z,15.80
2019-03-21T01:31:46.108Z,20.17
2019-03-21T01:34:15.944Z,18.10
2019-03-21T01:36:45.772Z,22.03
2019-03-21T01:39:15.621Z,21.90
2019-03-21T01:41:45.508Z,20.87
2019-03-21T01:44:15.424Z,24.20
2019-03-21T01:46:45.200Z,22.40
2019-03-21T01:49:15.028Z,22.23
2019-03-21T01:51:44.817Z,21.40
2019-03-21T01:54:14.641Z,21.03
2019-03-21T01:56:44.523Z,21.13
2019-03-21T01:59:14.305Z,24.67
2019-03-21T02:01:44.120Z,22.03
2019-03-21T02:04:13.892Z,26.57
2019-03-21T02:06:43.772Z,24.27
2019-03-21T02:09:13.593Z,23.87
2019-03-21T02:11:43.700Z,27.07
2019-03-21T02:14:13.551Z,21.07
2019-03-21T02:16:43.423Z,23.53
2019-03-21T02:19:13.235Z,23.43
2019-03-21T02:21:43.475Z,24.10
2019-03-21T02:24:13.967Z,24.63
2019-03-21T02:26:43.859Z,26.43
2019-03-21T02:29:13.727Z,23.83
2019-03-21T02:31:43.540Z,31.37
2019-03-21T02:34:13.351Z,23.27
2019-03-21T02:36:43.860Z,21.13
2019-03-21T02:39:13.684Z,27.20
2019-03-21T02:41:43.456Z,23.60
2019-03-21T02:44:13.279Z,29.43
2019-03-21T02:46:43.111Z,28.67
2019-03-21T02:49:12.895Z,19.87
2019-03-21T02:51:43.080Z,27.57
2019-03-21T02:54:12.885Z,28.50
2019-03-21T02:56:43.112Z,27.10
2019-03-21T02:59:12.903Z,27.93
2019-03-21T03:01:42.781Z,26.57
2019-03-21T03:04:12.671Z,23.83
2019-03-21T03:06:42.551Z,26.40
2019-03-21T03:09:12.375Z,29.30
2019-03-21T03:11:42.163Z,26.63
2019-03-21T03:14:11.975Z,24.10
2019-03-21T03:16:41.790Z,28.07
2019-03-21T03:19:11.575Z,26.07
2019-03-21T03:21:41.349Z,28.47
2019-03-21T03:24:11.185Z,27.80
2019-03-21T03:26:41.011Z,29.13
2019-03-21T03:29:10.843Z,27.73
2019-03-21T03:31:40.967Z,28.90
2019-03-21T03:34:10.743Z,29.37
2019-03-21T03:36:40.667Z,26.70
2019-03-21T03:39:10.541Z,32.80
2019-03-21T03:41:40.583Z,26.33
2019-03-21T03:44:10.410Z,26.17
2019-03-21T03:46:40.207Z,27.93
2019-03-21T03:49:10.023Z,27.17
2019-03-21T03:51:39.804Z,26.30
2019-03-21T03:54:09.687Z,29.83
2019-03-21T03:56:39.462Z,26.37
2019-03-21T03:59:09.279Z,27.60
2019-03-21T04:01:39.052Z,27.70
2019-03-21T04:04:08.978Z,31.10
2019-03-21T04:06:38.738Z,26.27
2019-03-21T04:09:09.297Z,30.70
2019-03-21T04:11:39.257Z,27.67
2019-03-21T04:14:09.067Z,31.10
2019-03-21T04:16:38.958Z,30.00
2019-03-21T04:19:08.802Z,23.43
2019-03-21T04:21:38.594Z,23.60
2019-03-21T04:24:08.405Z,26.80
2019-03-21T04:26:38.255Z,31.37
2019-03-21T04:29:08.115Z,25.33
2019-03-21T04:31:37.906Z,30.10
2019-03-21T04:34:08.487Z,28.97
2019-03-21T04:36:38.277Z,29.50
2019-03-21T04:39:09.465Z,26.60
2019-03-21T04:41:40.219Z,31.20
2019-03-21T04:44:10.089Z,29.30
2019-03-21T04:46:39.893Z,30.23
2019-03-21T04:49:09.681Z,33.77
2019-03-21T04:51:39.500Z,25.07
2019-03-21T04:54:09.281Z,24.33
2019-03-21T04:56:39.088Z,22.77
2019-03-21T04:59:08.873Z,28.67
2019-03-21T05:01:38.761Z,25.43
2019-03-21T05:04:08.578Z,28.87
2019-03-21T05:06:38.484Z,24.83
2019-03-21T05:09:11.844Z,25.90
2019-03-21T05:11:41.664Z,27.57
2019-03-21T05:14:11.486Z,25.13
2019-03-21T05:16:41.312Z,25.83
2019-03-21T05:19:11.268Z,24.83
2019-03-21T05:21:41.080Z,25.50
2019-03-21T05:24:10.880Z,26.60
2019-03-21T05:26:40.677Z,24.47
2019-03-21T05:29:10.495Z,23.03
2019-03-21T05:31:40.336Z,26.03
2019-03-21T05:34:10.162Z,24.43
2019-03-21T05:36:39.976Z,20.50
2019-03-21T05:39:10.852Z,24.27
2019-03-21T05:41:40.763Z,19.40
2019-03-21T05:44:30.935Z,25.37
2019-03-21T05:47:00.828Z,22.47
2019-03-21T05:49:30.632Z,24.27
2019-03-21T05:52:00.396Z,22.87
2019-03-21T05:54:30.213Z,22.43
2019-03-21T05:57:00.040Z,22.70
2019-03-21T05:59:29.868Z,19.27
2019-03-21T06:01:59.731Z,22.40
2019-03-21T06:04:29.550Z,30.37
2019-03-21T06:07:23.343Z,24.80
2019-03-21T06:09:53.228Z,23.73
2019-03-21T06:12:23.100Z,22.57
2019-03-21T06:14:58.867Z,23.10
2019-03-21T06:17:29.655Z,21.63
2019-03-21T06:20:24.372Z,19.93
2019-03-21T06:23:07.587Z,22.17
2019-03-21T06:26:39.287Z,25.00
2019-03-21T06:29:09.083Z,19.67
2019-03-21T06:31:38.935Z,19.00
2019-03-21T06:34:08.699Z,15.00
2019-03-21T06:36:38.538Z,16.37
2019-03-21T06:39:09.292Z,15.70
2019-03-21T06:41:39.095Z,16.07
2019-03-21T06:44:08.903Z,19.77
2019-03-21T06:46:48.855Z,23.10
2019-03-21T06:49:10.213Z,26.13
2019-03-21T06:51:40.080Z,21.97
2019-03-21T06:54:09.907Z,25.93
2019-03-21T06:56:39.703Z,21.27
2019-03-21T06:59:09.532Z,21.63
2019-03-21T07:01:39.307Z,23.10
2019-03-21T07:04:09.127Z,23.47
2019-03-21T07:06:38.923Z,16.30
2019-03-21T07:09:09.091Z,27.17
2019-03-21T07:11:38.891Z,19.83
2019-03-21T07:14:08.707Z,17.97
2019-03-21T07:16:38.541Z,22.47
2019-03-21T07:19:08.306Z,19.10
2019-03-21T07:21:38.242Z,20.13
2019-03-21T07:24:08.098Z,19.30
2019-03-21T07:26:37.931Z,20.93
2019-03-21T07:29:07.810Z,18.20
2019-03-21T07:31:37.589Z,17.23
2019-03-21T07:34:08.271Z,18.10
2019-03-21T07:36:38.879Z,16.33
2019-03-21T07:39:09.182Z,18.70
2019-03-21T07:41:39.023Z,16.23
2019-03-21T07:44:08.866Z,14.90
2019-03-21T07:46:38.746Z,18.17
2019-03-21T07:49:08.586Z,16.10
2019-03-21T07:51:38.372Z,19.33
2019-03-21T07:54:08.213Z,11.60
2019-03-21T07:56:38.012Z,13.57
2019-03-21T07:59:07.822Z,12.03
2019-03-21T08:01:38.414Z,17.87
2019-03-21T08:04:08.246Z,18.27
2019-03-21T08:06:38.053Z,13.83
2019-03-21T08:09:08.434Z,14.63
2019-03-21T08:11:38.325Z,19.83
2019-03-21T08:14:08.166Z,15.00
2019-03-21T08:16:38.094Z,14.67
2019-03-21T08:19:07.939Z,14.13
2019-03-21T08:21:37.747Z,15.30
2019-03-21T08:24:07.570Z,17.23
2019-03-21T08:26:37.914Z,14.73
2019-03-21T08:29:07.806Z,14.17
2019-03-21T08:31:37.651Z,21.83
2019-03-21T08:34:07.531Z,16.60
2019-03-21T08:36:37.501Z,16.80
2019-03-21T08:39:09.095Z,20.00
2019-03-21T08:41:39.233Z,13.33
2019-03-21T08:44:09.043Z,18.40
2019-03-21T08:46:38.851Z,15.43
2019-03-21T08:49:08.694Z,21.40
2019-03-21T08:51:38.515Z,15.93
2019-03-21T08:54:08.296Z,16.10
2019-03-21T08:56:38.128Z,15.87
2019-03-21T08:59:07.941Z,16.47
2019-03-21T09:01:37.766Z,22.00
2019-03-21T09:04:07.786Z,19.17
2019-03-21T09:06:37.612Z,18.33
2019-03-21T09:09:09.751Z,18.53
2019-03-21T09:11:39.607Z,17.10
2019-03-21T09:14:09.442Z,15.27
2019-03-21T09:16:39.283Z,18.30
2019-03-21T09:19:10.235Z,15.03
2019-03-21T09:21:40.319Z,19.70
2019-03-21T09:24:10.214Z,18.13
2019-03-21T09:26:39.999Z,18.80
2019-03-21T09:29:10.050Z,21.00
2019-03-21T09:31:39.879Z,19.00
2019-03-21T09:34:09.814Z,18.33
2019-03-21T09:36:39.838Z,16.97
2019-03-21T09:39:09.738Z,15.87
2019-03-21T09:41:39.609Z,18.20
2019-03-21T09:44:09.427Z,21.30
2019-03-21T09:46:50.087Z,18.97
2019-03-21T09:49:10.651Z,14.93
2019-03-21T09:51:40.814Z,17.13
2019-03-21T09:54:10.654Z,16.07
2019-03-21T09:56:40.730Z,21.80
2019-03-21T09:59:10.494Z,17.77
2019-03-21T10:01:40.384Z,12.23
2019-03-21T10:04:10.170Z,13.47
2019-03-21T10:06:40.190Z,16.80
2019-03-21T10:09:10.050Z,20.33
2019-03-21T10:11:39.969Z,21.40
2019-03-21T10:14:09.780Z,16.97
2019-03-21T10:16:39.600Z,14.10
2019-03-21T10:19:09.412Z,16.50
2019-03-21T10:21:43.667Z,16.17
2019-03-21T10:24:10.721Z,15.27
2019-03-21T10:26:40.535Z,17.30
2019-03-21T10:29:10.311Z,15.20
2019-03-21T10:31:40.172Z,19.73
2019-03-21T10:34:10.016Z,17.33
2019-03-21T10:36:39.807Z,17.07
2019-03-21T10:39:09.713Z,17.87
2019-03-21T10:41:39.427Z,19.20
2019-03-21T10:44:09.215Z,16.13
2019-03-21T10:46:39.015Z,19.80
2019-03-21T10:49:08.905Z,18.50
2019-03-21T10:51:38.722Z,18.03
2019-03-21T10:54:08.482Z,17.47
2019-03-21T10:56:38.350Z,20.20
2019-03-21T10:59:08.302Z,16.37
2019-03-21T11:01:38.074Z,20.50
2019-03-21T11:04:07.842Z,18.87
2019-03-21T11:06:37.711Z,19.43
2019-03-21T11:09:09.558Z,19.70
2019-03-21T11:11:39.330Z,25.70
2019-03-21T11:14:09.130Z,20.50
2019-03-21T11:16:39.206Z,22.30
2019-03-21T11:19:09.050Z,16.20
2019-03-21T11:21:38.906Z,19.47
2019-03-21T11:24:08.754Z,20.23
2019-03-21T11:26:38.610Z,22.13
2019-03-21T11:29:08.431Z,15.10
2019-03-21T11:31:38.354Z,20.27
2019-03-21T11:34:08.234Z,22.50
2019-03-21T11:36:38.885Z,15.00
2019-03-21T11:39:09.101Z,21.00
2019-03-21T11:41:38.977Z,18.30
2019-03-21T11:44:08.770Z,19.40
2019-03-21T11:46:38.649Z,20.07
2019-03-21T11:49:08.461Z,17.53
2019-03-21T11:51:38.288Z,16.93
2019-03-21T11:54:08.113Z,18.47
2019-03-21T11:56:37.904Z,19.30
2019-03-21T11:59:07.738Z,19.30
2019-03-21T12:01:37.725Z,17.27
2019-03-21T12:04:07.613Z,18.13
2019-03-21T12:06:37.807Z,22.73
2019-03-21T12:09:08.469Z,25.70
2019-03-21T12:11:38.353Z,19.20
2019-03-21T12:14:08.285Z,19.40
2019-03-21T12:16:38.057Z,23.40
2019-03-21T12:19:07.945Z,20.17
2019-03-21T12:21:37.901Z,24.63
2019-03-21T12:24:07.777Z,22.93
2019-03-21T12:26:37.766Z,20.40
2019-03-21T12:29:07.693Z,16.67
2019-03-21T12:31:37.850Z,19.93
2019-03-21T12:34:07.768Z,18.50
2019-03-21T12:36:37.577Z,20.60
2019-03-21T12:39:09.521Z,17.00
2019-03-21T12:41:39.377Z,18.00
2019-03-21T12:44:09.321Z,18.90
2019-03-21T12:46:39.297Z,18.23
2019-03-21T12:49:09.093Z,17.80
2019-03-21T12:51:39.005Z,14.40
2019-03-21T12:54:08.785Z,18.17
2019-03-21T12:56:38.610Z,19.20
2019-03-21T12:59:08.973Z,28.70
2019-03-21T13:01:38.825Z,22.00
2019-03-21T13:04:08.625Z,21.50
2019-03-21T13:06:38.441Z,17.03
2019-03-21T13:09:08.823Z,22.60
2019-03-21T13:11:38.613Z,18.77
2019-03-21T13:14:08.436Z,22.00
2019-03-21T13:16:38.261Z,19.30
2019-03-21T13:19:08.076Z,18.93
2019-03-21T13:21:37.961Z,20.33
2019-03-21T13:24:07.745Z,14.07
2019-03-21T13:26:37.592Z,18.83
2019-03-21T13:29:07.400Z,15.00
2019-03-21T13:31:38.676Z,20.40
2019-03-21T13:34:08.714Z,19.13
2019-03-21T13:36:38.564Z,14.77
2019-03-21T13:39:08.911Z,12.13
2019-03-21T13:41:38.740Z,12.83
2019-03-21T13:44:08.622Z,15.10
2019-03-21T13:46:38.425Z,15.73
2019-03-21T13:49:08.200Z,15.63
2019-03-21T13:51:38.023Z,13.40
2019-03-21T13:54:08.962Z,11.80
2019-03-21T13:56:38.967Z,13.73
2019-03-21T13:59:08.728Z,20.53
2019-03-21T14:01:38.565Z,13.60
2019-03-21T14:04:08.395Z,14.73
2019-03-21T14:06:38.222Z,16.77
2019-03-21T14:09:08.811Z,15.80
2019-03-21T14:11:38.625Z,16.33
2019-03-21T14:14:08.439Z,13.97
2019-03-21T14:16:38.260Z,12.20
2019-03-21T14:19:08.075Z,13.97
2019-03-21T14:21:37.983Z,12.77
2019-03-21T14:24:07.799Z,12.90
2019-03-21T14:26:37.583Z,13.57
2019-03-21T14:29:12.566Z,12.67
2019-03-21T14:31:38.807Z,13.67
2019-03-21T14:34:08.643Z,12.20
2019-03-21T14:36:38.488Z,15.47
2019-03-21T14:39:08.431Z,16.17
2019-03-21T14:41:38.255Z,16.80
2019-03-21T14:44:08.031Z,14.43
2019-03-21T14:46:37.935Z,14.57
2019-03-21T14:49:07.776Z,13.90
2019-03-21T14:51:37.554Z,14.63
2019-03-21T14:54:07.339Z,14.17
2019-03-21T14:56:37.082Z,17.37
2019-03-21T14:59:07.067Z,16.77
2019-03-21T15:01:36.891Z,18.40
2019-03-21T15:04:06.665Z,18.53
2019-03-21T15:06:36.474Z,21.97
2019-03-21T15:09:07.926Z,16.67
2019-03-21T15:11:37.830Z,17.23
2019-03-21T15:14:07.683Z,27.63
2019-03-21T15:16:37.510Z,21.73
2019-03-21T15:19:07.366Z,21.57
2019-03-21T15:21:37.200Z,23.23
2019-03-21T15:24:07.494Z,19.67
2019-03-21T15:26:37.307Z,19.87
2019-03-21T15:29:07.186Z,24.87
2019-03-21T15:31:37.018Z,19.93
2019-03-21T15:34:06.910Z,22.23
2019-03-21T15:36:36.741Z,19.97
2019-03-21T15:39:08.614Z,18.07
2019-03-21T15:41:39.010Z,18.20
2019-03-21T15:44:08.837Z,19.47
2019-03-21T15:46:38.729Z,21.80
2019-03-21T15:49:08.442Z,21.30
2019-03-21T15:51:38.227Z,24.73
2019-03-21T15:54:08.141Z,23.33
2019-03-21T15:56:37.941Z,20.97
2019-03-21T15:59:07.922Z,25.83
2019-03-21T16:01:37.714Z,26.97
2019-03-21T16:04:07.528Z,24.40
2019-03-21T16:06:37.506Z,28.10
2019-03-21T16:09:08.240Z,20.10
2019-03-21T16:11:38.076Z,26.23
2019-03-21T16:14:07.853Z,25.50
2019-03-21T16:16:37.692Z,28.87
2019-03-21T16:19:07.550Z,24.83
2019-03-21T16:21:37.343Z,26.10
2019-03-21T16:24:07.559Z,27.17
2019-03-21T16:26:37.336Z,26.63
2019-03-21T16:29:09.965Z,26.70
2019-03-21T16:31:38.747Z,27.67
2019-03-21T16:34:08.686Z,25.63
2019-03-21T16:36:38.619Z,26.57
2019-03-21T16:39:08.932Z,35.23
2019-03-21T16:41:39.290Z,32.33
2019-03-21T16:44:09.143Z,28.03
2019-03-21T16:46:38.951Z,36.27
2019-03-21T16:49:08.787Z,31.40
2019-03-21T16:51:38.650Z,57.57
2019-03-21T16:54:17.141Z,42.33
2019-03-21T16:56:39.951Z,31.43
2019-03-21T16:59:09.830Z,40.30
2019-03-21T17:01:39.779Z,58.23
2019-03-21T17:04:09.607Z,54.20
2019-03-21T17:06:39.429Z,28.83
2019-03-21T17:09:10.131Z,43.57
2019-03-21T17:11:39.931Z,46.60
2019-03-21T17:14:09.759Z,49.53
2019-03-21T17:16:39.594Z,49.23
2019-03-21T17:19:09.428Z,53.43
2019-03-21T17:21:39.312Z,56.90
2019-03-21T17:24:09.188Z,45.60
2019-03-21T17:26:39.068Z,42.40
2019-03-21T17:29:08.965Z,38.67
2019-03-21T17:31:38.752Z,40.90
2019-03-21T17:34:08.573Z,37.03
2019-03-21T17:36:38.467Z,50.30
2019-03-21T17:39:09.754Z,39.23
2019-03-21T17:41:39.636Z,34.37
2019-03-21T17:44:09.496Z,30.20
2019-03-21T17:46:39.288Z,28.70
2019-03-21T17:49:09.104Z,31.87
2019-03-21T17:51:38.872Z,48.63
2019-03-21T17:54:08.808Z,37.93
2019-03-21T17:56:38.597Z,31.23
2019-03-21T17:59:08.433Z,34.30
2019-03-21T18:01:38.280Z,22.77
2019-03-21T18:04:08.104Z,46.70
2019-03-21T18:06:37.925Z,36.43
2019-03-21T18:09:08.548Z,30.30
2019-03-21T18:11:38.473Z,29.73
2019-03-21T18:14:08.377Z,27.73
2019-03-21T18:16:38.264Z,25.87
2019-03-21T18:19:08.161Z,26.17
2019-03-21T18:21:38.064Z,23.53
2019-03-21T18:24:07.897Z,25.77
2019-03-21T18:26:37.684Z,27.90
2019-03-21T18:29:07.616Z,24.20
2019-03-21T18:31:37.468Z,20.40
2019-03-21T18:34:07.316Z,22.87
2019-03-21T18:36:37.188Z,21.83
2019-03-21T18:39:08.720Z,23.60
2019-03-21T18:41:38.559Z,27.30
2019-03-21T18:44:08.388Z,26.77
2019-03-21T18:46:38.220Z,25.33
2019-03-21T18:49:08.021Z,25.17
2019-03-21T18:51:37.860Z,24.47
2019-03-21T18:54:07.619Z,27.77
2019-03-21T18:56:37.512Z,36.20
2019-03-21T18:59:07.293Z,30.93
2019-03-21T19:01:37.177Z,25.27
2019-03-21T19:04:07.023Z,22.27
2019-03-21T19:06:36.915Z,23.37
2019-03-21T19:09:08.577Z,23.50
2019-03-21T19:11:38.395Z,27.37
2019-03-21T19:14:08.371Z,28.30
2019-03-21T19:16:38.383Z,24.97
2019-03-21T19:19:08.201Z,27.13
2019-03-21T19:21:38.095Z,28.80
2019-03-21T19:24:07.918Z,28.60
2019-03-21T19:26:37.710Z,25.03
2019-03-21T19:29:07.570Z,24.27
2019-03-21T19:31:37.375Z,26.97
2019-03-21T19:34:07.282Z,27.47
2019-03-21T19:36:37.106Z,27.27
2019-03-21T19:39:09.174Z,32.90
2019-03-21T19:41:39.049Z,29.00
2019-03-21T19:44:08.910Z,32.63
2019-03-21T19:46:38.893Z,22.87
2019-03-21T19:49:08.728Z,27.57
2019-03-21T19:51:38.510Z,27.03
2019-03-21T19:54:08.348Z,26.43
2019-03-21T19:56:38.160Z,28.07
2019-03-21T19:59:08.002Z,29.40
2019-03-21T20:01:37.798Z,23.13
2019-03-21T20:04:07.665Z,24.30
2019-03-21T20:06:37.436Z,27.97
2019-03-21T20:09:08.377Z,28.67
2019-03-21T20:11:38.210Z,25.90
2019-03-21T20:14:08.033Z,30.10
2019-03-21T20:16:37.857Z,28.60
2019-03-21T20:19:07.738Z,30.93
2019-03-21T20:21:47.412Z,27.20
2019-03-21T20:24:09.026Z,29.40
2019-03-21T20:26:38.842Z,25.37
2019-03-21T20:29:08.705Z,26.60
2019-03-21T20:31:38.503Z,25.03
2019-03-21T20:34:08.302Z,26.23
2019-03-21T20:36:38.217Z,24.47
2019-03-21T20:39:09.284Z,24.53
2019-03-21T20:41:39.053Z,25.00
2019-03-21T20:44:15.079Z,25.77
2019-03-21T20:46:40.581Z,22.60
2019-03-21T20:49:10.429Z,22.20
2019-03-21T20:51:40.220Z,25.90
2019-03-21T20:54:10.025Z,29.63
2019-03-21T20:56:39.836Z,24.23
2019-03-21T20:59:09.655Z,24.73
2019-03-21T21:01:39.540Z,23.77
2019-03-21T21:04:09.365Z,22.53
2019-03-21T21:06:39.208Z,26.73
2019-03-21T21:09:09.269Z,24.67
2019-03-21T21:11:39.120Z,27.73
2019-03-21T21:14:08.929Z,27.30
2019-03-21T21:16:38.752Z,28.60
2019-03-21T21:19:08.532Z,23.87
2019-03-21T21:21:38.352Z,28.00
2019-03-21T21:24:08.244Z,27.13
2019-03-21T21:26:38.051Z,31.53
2019-03-21T21:29:07.850Z,32.23
2019-03-21T21:31:37.751Z,27.73
2019-03-21T21:34:07.572Z,23.20
2019-03-21T21:36:37.415Z,29.53
2019-03-21T21:39:08.628Z,31.03
2019-03-21T21:41:38.431Z,26.33
2019-03-21T21:44:08.812Z,28.23
2019-03-21T21:46:38.619Z,28.77
2019-03-21T21:49:08.440Z,31.23
2019-03-21T21:51:38.214Z,27.33
2019-03-21T21:54:08.035Z,34.43
2019-03-21T21:56:37.890Z,27.47
2019-03-21T21:59:07.674Z,28.93
2019-03-21T22:01:37.454Z,30.47
2019-03-21T22:04:07.226Z,27.30
2019-03-21T22:06:36.982Z,24.27
2019-03-21T22:09:08.726Z,28.47
2019-03-21T22:11:38.566Z,26.77
2019-03-21T22:14:08.358Z,30.90
2019-03-21T22:16:38.330Z,31.03
2019-03-21T22:19:08.110Z,30.33
2019-03-21T22:21:37.890Z,28.80
2019-03-21T22:24:07.814Z,31.20
2019-03-21T22:26:37.606Z,29.23
2019-03-21T22:29:07.746Z,27.67
2019-03-21T22:31:37.612Z,27.27
2019-03-21T22:34:07.411Z,28.43
2019-03-21T22:36:48.628Z,33.10
2019-03-21T22:39:09.164Z,31.70
2019-03-21T22:41:39.261Z,34.10
2019-03-21T22:44:09.081Z,35.07
2019-03-21T22:46:38.855Z,32.27
2019-03-21T22:49:08.749Z,31.27
2019-03-21T22:51:38.522Z,29.17
2019-03-21T22:54:08.300Z,28.33
2019-03-21T22:56:41.605Z,29.87
2019-03-21T22:59:09.577Z,33.37
2019-03-21T23:01:39.433Z,30.47
2019-03-21T23:04:09.250Z,32.13
2019-03-21T23:06:39.073Z,36.73
2019-03-21T23:09:08.961Z,32.07
2019-03-21T23:11:38.829Z,35.43
2019-03-21T23:14:08.709Z,28.83
2019-03-21T23:16:38.713Z,32.60
2019-03-21T23:19:08.563Z,31.47
2019-03-21T23:21:38.596Z,31.23
2019-03-21T23:24:08.405Z,29.03
2019-03-21T23:26:38.300Z,28.03
2019-03-21T23:29:08.102Z,31.47
2019-03-21T23:31:37.996Z,30.30
2019-03-21T23:34:09.265Z,26.87
2019-03-21T23:36:39.016Z,31.87
2019-03-21T23:39:08.988Z,30.30
2019-03-21T23:41:38.780Z,27.37
2019-03-21T23:44:08.556Z,27.70
2019-03-21T23:46:38.396Z,32.93
2019-03-21T23:49:08.302Z,30.53
2019-03-21T23:51:38.092Z,37.10
2019-03-21T23:54:07.932Z,34.77
2019-03-21T23:56:37.764Z,27.30
2019-03-21T23:59:07.536Z,32.20
